Time;durP1;ratioP1;P1;durP2;ratioP2;P2;SDS_P1;SDS_P2;PMS_P1;PMS_P2;Temp;Humidity;BMP_temperature;BMP_pressure;BME280_temperature;BME280_humidity;BME280_pressure;Samples;Min_cycle;Max_cycle;Signal;HPM_P1;HPM_P2
2022/07/11 00:02:05;;;;;;;0.00;0.00;;;18.50;99.90;;;;;;4991316;28;20121;-72
2022/07/11 00:04:33;;;;;;;1.08;1.08;;;18.60;99.90;;;;;;4991223;28;20030;-71
2022/07/11 00:07:00;;;;;;;0.10;0.10;;;18.60;99.90;;;;;;4991448;28;20122;-72
2022/07/11 00:09:27;;;;;;;0.63;0.28;;;18.50;99.90;;;;;;4991401;28;20153;-71
2022/07/11 00:11:53;;;;;;;0.43;0.43;;;18.50;99.90;;;;;;4974258;28;20034;-72
2022/07/11 00:14:21;;;;;;;0.00;0.00;;;18.50;99.90;;;;;;4974385;28;20040;-72
2022/07/11 00:16:47;;;;;;;0.00;0.00;;;18.40;99.90;;;;;;4991206;28;20038;-71
2022/07/11 00:19:13;;;;;;;0.85;0.10;;;18.40;99.90;;;;;;4974083;28;20027;-72
2022/07/11 00:21:40;;;;;;;0.00;0.00;;;18.40;99.90;;;;;;4991447;28;20057;-71
2022/07/11 00:24:07;;;;;;;0.00;0.00;;;18.40;99.90;;;;;;4973981;28;20475;-73
2022/07/11 00:26:34;;;;;;;0.50;0.08;;;18.40;99.90;;;;;;4991693;28;20033;-73
2022/07/11 00:29:00;;;;;;;0.00;0.00;;;18.40;99.90;;;;;;4975191;28;20029;-73
2022/07/11 00:31:26;;;;;;;0.10;0.10;;;18.40;99.90;;;;;;4994635;28;20406;-71
2022/07/11 00:33:51;;;;;;;0.52;0.52;;;18.30;99.90;;;;;;4961520;28;20041;-72
2022/07/11 00:36:17;;;;;;;0.13;0.13;;;18.30;99.90;;;;;;4994892;28;20501;-73
2022/07/11 00:38:43;;;;;;;0.15;0.10;;;18.30;99.90;;;;;;4994844;28;20037;-72
2022/07/11 00:41:08;;;;;;;0.00;0.00;;;18.20;99.90;;;;;;4994947;28;20035;-74
2022/07/11 00:43:37;;;;;;;0.00;0.00;;;18.20;99.90;;;;;;4994747;28;20033;-72
2022/07/11 00:46:05;;;;;;;0.20;0.20;;;18.20;99.90;;;;;;4994851;28;20034;-72
2022/07/11 00:48:31;;;;;;;0.10;0.10;;;18.20;99.90;;;;;;4994839;28;20040;-72
2022/07/11 00:50:58;;;;;;;0.10;0.10;;;18.20;99.90;;;;;;4994502;28;20030;-72
2022/07/11 00:53:24;;;;;;;0.35;0.32;;;18.10;99.90;;;;;;4977330;28;20085;-73
2022/07/11 00:55:53;;;;;;;0.60;0.55;;;18.10;99.90;;;;;;4977327;28;20023;-72
2022/07/11 00:58:19;;;;;;;0.00;0.00;;;18.00;99.90;;;;;;4977147;28;20019;-72
2022/07/11 01:00:45;;;;;;;0.10;0.10;;;18.00;99.90;;;;;;4976828;28;20034;-72
2022/07/11 01:03:12;;;;;;;0.28;0.22;;;17.90;99.90;;;;;;4977021;28;20027;-73
2022/07/11 01:05:37;;;;;;;0.55;0.35;;;18.00;99.90;;;;;;4976900;28;20053;-73
2022/07/11 01:08:04;;;;;;;0.00;0.00;;;17.90;99.90;;;;;;5002039;28;20023;-73
2022/07/11 01:10:31;;;;;;;0.20;0.20;;;17.90;99.90;;;;;;4983951;28;20038;-72
2022/07/11 01:12:57;;;;;;;0.05;0.05;;;17.90;99.90;;;;;;4996339;28;20030;-72
2022/07/11 01:15:24;;;;;;;0.20;0.20;;;17.90;99.90;;;;;;5005553;28;20022;-73
2022/07/11 01:17:52;;;;;;;0.28;0.20;;;17.80;99.90;;;;;;5008666;28;20026;-73
2022/07/11 01:20:24;;;;;;;0.00;0.00;;;17.70;99.90;;;;;;5008827;28;20041;-72
2022/07/11 01:23:06;;;;;;;0.00;0.00;;;17.70;99.90;;;;;;4994198;28;20113;-73
2022/07/11 01:25:33;;;;;;;0.20;0.20;;;17.60;99.90;;;;;;4973859;28;20037;-73
2022/07/11 01:28:04;;;;;;;0.10;0.10;;;17.50;99.90;;;;;;4957155;28;20403;-73
2022/07/11 01:30:34;;;;;;;0.10;0.10;;;17.50;99.90;;;;;;4957080;28;20031;-73
2022/07/11 01:33:00;;;;;;;0.00;0.00;;;17.40;99.90;;;;;;4972867;28;20123;-72
2022/07/11 01:35:28;;;;;;;0.10;0.10;;;17.40;99.90;;;;;;4973455;28;20172;-72
2022/07/11 01:37:54;;;;;;;0.20;0.10;;;17.30;99.90;;;;;;4941288;28;20413;-72
2022/07/11 01:40:20;;;;;;;0.10;0.10;;;17.30;99.90;;;;;;4978202;28;20035;-73
2022/07/11 01:42:46;;;;;;;0.10;0.08;;;17.30;99.90;;;;;;5012930;28;20060;-72
2022/07/11 01:45:13;;;;;;;0.00;0.00;;;17.30;99.90;;;;;;4995812;28;20030;-73
2022/07/11 01:47:39;;;;;;;0.00;0.00;;;17.30;99.90;;;;;;5012912;28;20033;-72
2022/07/11 01:50:06;;;;;;;0.28;0.28;;;17.20;99.90;;;;;;5013031;28;20040;-71
2022/07/11 01:52:32;;;;;;;0.00;0.00;;;17.10;99.90;;;;;;4995237;28;20030;-73
2022/07/11 01:54:57;;;;;;;0.00;0.00;;;17.10;99.90;;;;;;5013298;28;20025;-72
2022/07/11 01:57:23;;;;;;;0.35;0.28;;;17.00;99.90;;;;;;4995167;28;20030;-72
2022/07/11 01:59:50;;;;;;;0.35;0.32;;;17.00;99.90;;;;;;5013038;28;20038;-71
2022/07/11 02:02:16;;;;;;;0.00;0.00;;;17.00;99.90;;;;;;4994909;28;20036;-71
2022/07/11 02:04:42;;;;;;;0.10;0.10;;;17.00;99.90;;;;;;4995500;28;20052;-71
2022/07/11 02:07:11;;;;;;;0.17;0.17;;;17.00;99.90;;;;;;5012575;28;20478;-72
2022/07/11 02:09:37;;;;;;;0.00;0.00;;;17.00;99.90;;;;;;4995609;28;20033;-72
2022/07/11 02:12:05;;;;;;;0.10;0.10;;;17.00;99.90;;;;;;5012498;28;20504;-72
2022/07/11 02:14:31;;;;;;;0.00;0.00;;;17.10;99.90;;;;;;5009779;28;20125;-72
2022/07/11 02:16:58;;;;;;;0.45;0.45;;;17.10;99.90;;;;;;4991744;28;20042;-71
2022/07/11 02:19:24;;;;;;;0.43;0.25;;;17.10;99.90;;;;;;5007814;28;20026;-72
2022/07/11 02:21:49;;;;;;;0.80;0.35;;;17.20;99.90;;;;;;4992853;28;20105;-72
2022/07/11 02:24:15;;;;;;;3.30;1.55;;;17.30;99.90;;;;;;4992529;28;20049;-73
2022/07/11 02:26:41;;;;;;;0.00;0.00;;;17.30;99.90;;;;;;4991755;28;20039;-72
2022/07/11 02:29:07;;;;;;;0.00;0.00;;;17.40;99.90;;;;;;5007771;28;20038;-72
2022/07/11 02:31:32;;;;;;;0.00;0.00;;;17.50;99.90;;;;;;4992950;28;20439;-72
2022/07/11 02:33:58;;;;;;;3.15;0.47;;;17.50;99.90;;;;;;4992378;28;20501;-72
2022/07/11 02:36:24;;;;;;;0.15;0.10;;;17.50;99.90;;;;;;4992710;28;20840;-72
2022/07/11 02:38:50;;;;;;;0.00;0.00;;;17.60;99.90;;;;;;4992250;28;20030;-72
2022/07/11 02:41:16;;;;;;;0.25;0.25;;;17.60;99.90;;;;;;4992845;28;20050;-72
2022/07/11 02:43:41;;;;;;;0.05;0.05;;;17.60;99.90;;;;;;4992350;28;20118;-72
2022/07/11 02:46:07;;;;;;;0.52;0.43;;;17.70;99.90;;;;;;4992571;28;20030;-72
2022/07/11 02:48:33;;;;;;;0.00;0.00;;;17.60;99.90;;;;;;4992132;28;20383;-72
2022/07/11 02:50:58;;;;;;;0.22;0.22;;;17.70;99.90;;;;;;4992367;28;20023;-72
2022/07/11 02:53:24;;;;;;;0.00;0.00;;;17.80;99.90;;;;;;4991925;28;20109;-71
2022/07/11 02:55:50;;;;;;;0.00;0.00;;;17.80;99.90;;;;;;4992616;28;20045;-71
2022/07/11 02:58:15;;;;;;;0.10;0.10;;;17.80;99.90;;;;;;4992080;28;20161;-72
2022/07/11 03:00:41;;;;;;;0.68;0.68;;;17.80;99.90;;;;;;4992218;28;20033;-71
2022/07/11 03:03:07;;;;;;;0.22;0.22;;;17.80;99.90;;;;;;5007233;28;20041;-71
2022/07/11 03:05:33;;;;;;;0.08;0.08;;;17.80;99.90;;;;;;4992363;28;20034;-70
2022/07/11 03:07:59;;;;;;;0.32;0.28;;;17.90;99.90;;;;;;4988023;28;20025;-70
2022/07/11 03:10:25;;;;;;;0.00;0.00;;;17.90;99.90;;;;;;5000023;28;20036;-69
2022/07/11 03:12:51;;;;;;;0.20;0.20;;;17.90;99.90;;;;;;5001602;28;20045;-69
2022/07/11 03:15:17;;;;;;;0.20;0.20;;;17.90;99.90;;;;;;5001048;28;20109;-70
2022/07/11 03:17:43;;;;;;;0.20;0.20;;;17.90;99.90;;;;;;4986771;28;20049;-70
2022/07/11 03:20:10;;;;;;;0.03;0.03;;;18.00;99.90;;;;;;4991360;28;20030;-70
2022/07/11 03:22:36;;;;;;;0.30;0.30;;;17.90;99.90;;;;;;4974289;28;20050;-70
2022/07/11 03:25:05;;;;;;;0.65;0.35;;;17.90;99.90;;;;;;4958542;28;20121;-70
2022/07/11 03:27:35;;;;;;;0.00;0.00;;;17.90;99.90;;;;;;4958525;28;20081;-70
2022/07/11 03:30:01;;;;;;;0.17;0.10;;;17.90;99.90;;;;;;4991736;28;20026;-70
2022/07/11 03:32:26;;;;;;;0.25;0.25;;;17.90;99.90;;;;;;4991779;28;20030;-70
2022/07/11 03:37:36;;;;;;;0.10;0.08;;;17.90;99.90;;;;;;4980465;28;20038;-70
2022/07/11 03:40:02;;;;;;;0.38;0.38;;;18.00;99.90;;;;;;5011027;28;20481;-70
2022/07/11 03:42:28;;;;;;;0.35;0.35;;;18.00;99.90;;;;;;4993425;28;20026;-70
2022/07/11 03:44:54;;;;;;;0.20;0.20;;;18.10;99.90;;;;;;5011315;28;20041;-70
2022/07/11 03:47:20;;;;;;;0.00;0.00;;;18.10;99.90;;;;;;4994075;28;20117;-71
2022/07/11 03:49:47;;;;;;;0.80;0.40;;;18.10;99.90;;;;;;5010913;28;20133;-69
2022/07/11 03:52:13;;;;;;;0.13;0.13;;;18.10;99.90;;;;;;4993581;28;20026;-69
2022/07/11 03:54:39;;;;;;;0.20;0.20;;;18.20;99.90;;;;;;4993228;28;20116;-69
2022/07/11 03:57:06;;;;;;;0.00;0.00;;;18.20;99.90;;;;;;5011095;28;20132;-69
2022/07/11 03:59:31;;;;;;;0.10;0.10;;;18.20;99.90;;;;;;4993131;28;20041;-70
2022/07/11 04:01:57;;;;;;;12.90;1.02;;;18.20;99.90;;;;;;5010612;28;20394;-70
2022/07/11 04:04:23;;;;;;;0.20;0.20;;;18.20;99.90;;;;;;5012760;28;20052;-70
2022/07/11 04:06:48;;;;;;;0.00;0.00;;;18.20;99.90;;;;;;5014430;28;20037;-70
2022/07/11 04:09:14;;;;;;;0.10;0.10;;;18.20;99.90;;;;;;4980301;28;20034;-70
2022/07/11 04:11:40;;;;;;;0.20;0.20;;;18.20;99.90;;;;;;4995414;28;20038;-70
2022/07/11 04:14:06;;;;;;;0.47;0.47;;;18.30;99.90;;;;;;4995122;28;20084;-70
2022/07/11 04:16:31;;;;;;;0.20;0.20;;;18.30;99.90;;;;;;5013997;28;20041;-70
2022/07/11 04:18:57;;;;;;;0.22;0.20;;;18.20;99.90;;;;;;4996812;28;20394;-69
2022/07/11 04:21:23;;;;;;;0.08;0.08;;;18.20;99.90;;;;;;5014356;28;20177;-68
2022/07/11 04:23:48;;;;;;;0.10;0.10;;;18.30;99.90;;;;;;5014759;28;20030;-69
2022/07/11 04:26:14;;;;;;;0.20;0.17;;;18.30;99.90;;;;;;5014329;28;20026;-69
2022/07/11 04:28:40;;;;;;;0.00;0.00;;;18.30;99.90;;;;;;5014269;28;20049;-68
2022/07/11 04:31:06;;;;;;;0.10;0.10;;;18.30;99.90;;;;;;5014449;28;20030;-67
2022/07/11 04:33:32;;;;;;;6.45;3.88;;;18.30;99.90;;;;;;5014155;28;20506;-68
2022/07/11 04:35:57;;;;;;;5.80;3.58;;;18.40;99.90;;;;;;5014331;28;20034;-67
2022/07/11 04:38:23;;;;;;;0.47;0.47;;;18.40;99.90;;;;;;5013624;28;20020;-67
2022/07/11 04:40:50;;;;;;;1.50;1.40;;;18.50;99.90;;;;;;5014565;28;20133;-67
2022/07/11 04:43:16;;;;;;;0.10;0.10;;;18.50;99.90;;;;;;5013864;28;20104;-67
2022/07/11 04:45:42;;;;;;;0.17;0.17;;;18.50;99.90;;;;;;4996421;28;20123;-68
2022/07/11 04:48:08;;;;;;;0.00;0.00;;;18.50;99.90;;;;;;4996389;28;20489;-68
2022/07/11 04:50:33;;;;;;;0.38;0.38;;;18.50;99.90;;;;;;5013615;28;20084;-67
2022/07/11 04:52:59;;;;;;;0.47;0.45;;;18.60;99.90;;;;;;5013779;28;20061;-68
2022/07/11 04:55:25;;;;;;;0.60;0.52;;;18.60;99.90;;;;;;5013714;28;20108;-68
2022/07/11 04:57:51;;;;;;;0.90;0.75;;;18.60;99.90;;;;;;4996118;28;20508;-67
2022/07/11 05:00:18;;;;;;;0.90;0.73;;;18.70;99.90;;;;;;4996373;28;20102;-67
2022/07/11 05:02:44;;;;;;;0.00;0.00;;;18.70;99.90;;;;;;4996097;28;20113;-66
2022/07/11 05:05:09;;;;;;;0.95;0.90;;;18.50;99.90;;;;;;5013758;28;20112;-69
2022/07/11 05:07:35;;;;;;;0.10;0.10;;;18.50;99.90;;;;;;5013329;28;20037;-66
2022/07/11 05:10:02;;;;;;;0.47;0.47;;;18.40;99.90;;;;;;5013663;28;20423;-67
2022/07/11 05:12:28;;;;;;;0.00;0.00;;;18.40;99.90;;;;;;5013724;28;20029;-67
2022/07/11 05:14:55;;;;;;;0.20;0.20;;;18.30;99.90;;;;;;4986247;28;20100;-67
2022/07/11 05:17:20;;;;;;;0.00;0.00;;;18.30;99.90;;;;;;5013260;28;20056;-66
2022/07/11 05:19:46;;;;;;;0.55;0.55;;;18.30;99.90;;;;;;4995696;28;20477;-66
2022/07/11 05:22:12;;;;;;;2.38;0.90;;;18.30;99.90;;;;;;4995486;28;20490;-67
2022/07/11 05:24:38;;;;;;;0.00;0.00;;;18.40;99.90;;;;;;5013652;28;20363;-73
2022/07/11 05:27:03;;;;;;;0.00;0.00;;;18.50;99.90;;;;;;4977230;28;20073;-70
2022/07/11 05:29:29;;;;;;;2.28;0.38;;;18.50;99.90;;;;;;4984154;28;20034;-69
2022/07/11 05:31:55;;;;;;;0.00;0.00;;;18.50;99.90;;;;;;4974204;28;20030;-70
2022/07/11 05:34:20;;;;;;;0.05;0.05;;;18.50;99.90;;;;;;4973392;28;20390;-70
2022/07/11 05:36:47;;;;;;;0.00;0.00;;;18.50;99.90;;;;;;4972617;28;20117;-70
2022/07/11 05:39:13;;;;;;;0.00;0.00;;;18.40;99.90;;;;;;4992518;28;20022;-70
2022/07/11 05:41:39;;;;;;;0.43;0.30;;;18.50;99.90;;;;;;5012412;28;20041;-70
2022/07/11 05:44:04;;;;;;;0.10;0.10;;;18.50;99.90;;;;;;4995368;28;20385;-70
2022/07/11 05:46:30;;;;;;;0.13;0.13;;;18.50;99.90;;;;;;5012939;28;20030;-70
2022/07/11 05:48:56;;;;;;;0.55;0.55;;;18.50;99.90;;;;;;4995682;28;20026;-71
2022/07/11 05:51:22;;;;;;;0.52;0.52;;;18.60;99.90;;;;;;5012836;28;20551;-70
2022/07/11 05:53:47;;;;;;;0.20;0.20;;;18.70;99.90;;;;;;5012679;28;20030;-70
2022/07/11 05:56:13;;;;;;;0.30;0.30;;;18.70;99.90;;;;;;5012662;28;20034;-70
2022/07/11 05:58:39;;;;;;;0.40;0.40;;;18.80;99.90;;;;;;5012327;28;20048;-71
2022/07/11 06:01:05;;;;;;;0.15;0.15;;;18.70;99.90;;;;;;5008136;28;20030;-70
2022/07/11 06:03:30;;;;;;;0.00;0.00;;;18.90;99.90;;;;;;4976010;28;20077;-70
2022/07/11 06:05:56;;;;;;;0.10;0.08;;;19.00;99.90;;;;;;4993600;28;20031;-70
2022/07/11 06:08:40;;;;;;;0.25;0.15;;;19.00;99.90;;;;;;5002359;28;20125;-70
2022/07/11 06:11:05;;;;;;;0.00;0.00;;;18.90;99.90;;;;;;5012617;28;20033;-70
2022/07/11 06:13:31;;;;;;;1.40;0.82;;;19.00;99.90;;;;;;4994973;28;20036;-70
2022/07/11 06:15:58;;;;;;;2.13;0.40;;;19.20;99.90;;;;;;4995319;28;20022;-71
2022/07/11 06:18:23;;;;;;;0.10;0.10;;;19.10;99.90;;;;;;4994684;28;20489;-71
2022/07/11 06:20:50;;;;;;;0.00;0.00;;;19.00;99.90;;;;;;4994871;28;20034;-69
2022/07/11 06:23:16;;;;;;;0.00;0.00;;;19.00;99.90;;;;;;4994565;28;20030;-69
2022/07/11 06:25:42;;;;;;;0.30;0.30;;;19.10;99.90;;;;;;5012049;28;20038;-70
2022/07/11 06:28:07;;;;;;;0.00;0.00;;;19.20;99.90;;;;;;5011714;28;20032;-70
2022/07/11 06:30:34;;;;;;;0.47;0.47;;;19.30;99.90;;;;;;4994613;28;20030;-70
2022/07/11 06:33:00;;;;;;;0.30;0.20;;;19.40;99.90;;;;;;5012130;28;20036;-70
2022/07/11 06:35:26;;;;;;;11.60;0.70;;;19.50;99.90;;;;;;4995025;28;20030;-71
2022/07/11 06:37:52;;;;;;;1.38;0.38;;;19.60;99.90;;;;;;5012055;28;20034;-70
2022/07/11 06:40:18;;;;;;;4.78;1.55;;;19.50;99.90;;;;;;4977978;28;20034;-69
2022/07/11 06:42:45;;;;;;;0.20;0.20;;;19.50;99.90;;;;;;4994473;28;20034;-70
2022/07/11 06:45:11;;;;;;;0.22;0.20;;;19.50;99.90;;;;;;5012270;28;20076;-70
2022/07/11 06:47:36;;;;;;;1.10;1.00;;;19.50;99.90;;;;;;4994543;28;20025;-69
2022/07/11 06:50:03;;;;;;;0.17;0.17;;;19.70;99.90;;;;;;5011844;28;20600;-69
2022/07/11 06:52:28;;;;;;;1.65;1.00;;;19.70;99.90;;;;;;5011706;28;20512;-69
2022/07/11 06:54:54;;;;;;;0.10;0.10;;;19.90;99.90;;;;;;5011898;28;20130;-69
2022/07/11 06:57:20;;;;;;;0.13;0.13;;;19.90;99.90;;;;;;5011737;28;20034;-71
2022/07/11 06:59:46;;;;;;;0.20;0.20;;;19.90;99.90;;;;;;4994563;28;20036;-69
2022/07/11 07:02:11;;;;;;;0.22;0.22;;;19.80;99.90;;;;;;4994095;28;20042;-70
2022/07/11 07:04:37;;;;;;;0.08;0.08;;;19.80;99.90;;;;;;5012160;28;20052;-70
2022/07/11 07:07:03;;;;;;;0.98;0.43;;;19.90;99.90;;;;;;5011681;28;20048;-70
2022/07/11 07:09:29;;;;;;;0.90;0.90;;;20.00;99.90;;;;;;5011304;28;20034;-70
2022/07/11 07:11:55;;;;;;;12.90;0.75;;;20.10;99.90;;;;;;4994316;28;20346;-70
2022/07/11 07:14:21;;;;;;;0.00;0.00;;;20.10;99.90;;;;;;4993920;28;20036;-71
2022/07/11 07:16:47;;;;;;;0.10;0.10;;;20.00;99.90;;;;;;4994166;28;20060;-70
2022/07/11 07:19:14;;;;;;;0.20;0.20;;;20.00;99.90;;;;;;5011251;28;20032;-70
2022/07/11 07:21:39;;;;;;;0.20;0.20;;;20.20;99.90;;;;;;4985822;28;20088;-70
2022/07/11 07:24:05;;;;;;;0.00;0.00;;;20.40;99.90;;;;;;4974530;28;20026;-69
2022/07/11 07:26:32;;;;;;;0.17;0.17;;;20.50;99.90;;;;;;4974257;28;20271;-69
2022/07/11 07:28:59;;;;;;;0.17;0.17;;;20.90;99.90;;;;;;4974242;28;20029;-69
2022/07/11 07:31:24;;;;;;;1.85;1.00;;;20.90;99.90;;;;;;4974809;28;20394;-69
2022/07/11 07:33:51;;;;;;;0.00;0.00;;;21.00;99.90;;;;;;4991502;28;20030;-67
2022/07/11 07:36:17;;;;;;;2.83;1.05;;;21.10;99.90;;;;;;4991521;28;20044;-67
2022/07/11 07:38:46;;;;;;;4.07;1.60;;;21.30;99.90;;;;;;5002564;28;20552;-68
2022/07/11 07:41:15;;;;;;;1.42;0.85;;;21.50;99.90;;;;;;4993753;28;20049;-68
2022/07/11 07:43:43;;;;;;;3.35;0.98;;;21.50;99.90;;;;;;4993943;28;20247;-69
2022/07/11 07:46:09;;;;;;;0.08;0.08;;;21.40;99.90;;;;;;5011184;28;20437;-69
2022/07/11 07:48:35;;;;;;;0.13;0.13;;;21.20;99.90;;;;;;5010859;28;20030;-68
2022/07/11 07:51:01;;;;;;;0.00;0.00;;;21.30;99.90;;;;;;4993856;28;20041;-69
2022/07/11 07:53:27;;;;;;;0.52;0.20;;;21.20;99.90;;;;;;5010919;28;20030;-69
2022/07/11 07:55:53;;;;;;;0.40;0.40;;;21.10;99.90;;;;;;5011383;28;20041;-69
2022/07/11 07:58:18;;;;;;;0.30;0.30;;;21.20;99.90;;;;;;5011232;28;20041;-68
2022/07/11 08:03:28;;;;;;;0.68;0.45;;;21.50;99.90;;;;;;4996351;28;20486;-69
2022/07/11 08:05:55;;;;;;;0.00;0.00;;;21.70;99.90;;;;;;5011021;28;20062;-68
2022/07/11 08:08:20;;;;;;;0.20;0.20;;;21.70;99.90;;;;;;4992974;28;20022;-69
2022/07/11 08:10:46;;;;;;;0.75;0.73;;;21.70;99.90;;;;;;4993281;28;20030;-69
2022/07/11 08:13:12;;;;;;;0.10;0.10;;;21.80;99.90;;;;;;4993321;28;20091;-68
2022/07/11 08:15:38;;;;;;;0.08;0.08;;;22.00;99.90;;;;;;4993337;28;20125;-68
2022/07/11 08:18:03;;;;;;;0.00;0.00;;;22.10;99.90;;;;;;5010817;28;20176;-69
2022/07/11 08:20:29;;;;;;;0.03;0.03;;;22.20;99.90;;;;;;5010839;28;20068;-70
2022/07/11 08:23:03;;;;;;;0.00;0.00;;;22.40;99.90;;;;;;5010478;28;20076;-69
2022/07/11 08:25:30;;;;;;;0.38;0.38;;;22.60;99.90;;;;;;4993881;28;20045;-69
2022/07/11 08:27:56;;;;;;;0.00;0.00;;;22.70;99.50;;;;;;5010805;28;20084;-69
2022/07/11 08:30:22;;;;;;;0.00;0.00;;;22.60;99.50;;;;;;4993407;28;20034;-69
2022/07/11 08:32:48;;;;;;;0.00;0.00;;;22.60;99.50;;;;;;5010473;28;20025;-69
2022/07/11 08:35:16;;;;;;;0.17;0.17;;;22.50;99.90;;;;;;5010770;28;20040;-69
2022/07/11 08:37:43;;;;;;;0.00;0.00;;;22.50;99.50;;;;;;5011035;28;20034;-69
2022/07/11 08:40:10;;;;;;;0.00;0.00;;;22.60;99.40;;;;;;5010519;28;20053;-69
2022/07/11 08:42:44;;;;;;;0.00;0.00;;;22.50;99.30;;;;;;4976929;28;20034;-70
2022/07/11 08:45:14;;;;;;;0.00;0.00;;;22.50;99.30;;;;;;5010567;28;20037;-69
2022/07/11 08:47:41;;;;;;;0.00;0.00;;;22.60;99.40;;;;;;4993590;28;20474;-70
2022/07/11 08:50:10;;;;;;;0.52;0.40;;;22.70;99.40;;;;;;4994211;28;20672;-69
2022/07/11 08:52:37;;;;;;;0.15;0.15;;;22.80;99.30;;;;;;4996871;28;20521;-69
2022/07/11 08:55:07;;;;;;;0.30;0.30;;;22.80;98.90;;;;;;4980400;28;20034;-69
2022/07/11 08:57:41;;;;;;;0.00;0.00;;;22.80;98.90;;;;;;4980931;28;20497;-69
2022/07/11 09:00:09;;;;;;;0.00;0.00;;;22.70;99.00;;;;;;5013867;28;20041;-69
2022/07/11 09:02:36;;;;;;;0.20;0.20;;;22.60;99.30;;;;;;4980251;28;20057;-69
2022/07/11 09:05:05;;;;;;;0.08;0.08;;;22.50;99.40;;;;;;4996274;28;20045;-69
2022/07/11 09:07:32;;;;;;;0.05;0.05;;;22.60;99.50;;;;;;4980611;28;20046;-69
2022/07/11 09:10:00;;;;;;;0.00;0.00;;;22.80;99.40;;;;;;5013718;28;20022;-69
2022/07/11 09:12:26;;;;;;;0.55;0.28;;;22.90;98.90;;;;;;5013634;28;20038;-69
2022/07/11 09:14:52;;;;;;;0.00;0.00;;;23.00;99.00;;;;;;4996637;28;20129;-69
2022/07/11 09:17:26;;;;;;;0.10;0.10;;;22.90;98.80;;;;;;5013728;28;20037;-70
2022/07/11 09:19:53;;;;;;;0.38;0.25;;;22.90;98.90;;;;;;4996098;28;20405;-69
2022/07/11 09:25:31;;;;;;;0.00;0.00;;;23.30;98.60;;;;;;5000169;28;20033;-69
2022/07/11 09:28:05;;;;;;;0.30;0.30;;;23.20;98.30;;;;;;4994139;28;20106;-70
2022/07/11 09:30:39;;;;;;;0.80;0.70;;;23.40;98.30;;;;;;4993637;28;20154;-69
2022/07/11 09:33:12;;;;;;;0.00;0.00;;;23.30;98.10;;;;;;4977064;28;20076;-69
2022/07/11 09:35:41;;;;;;;0.22;0.22;;;23.00;98.10;;;;;;4960139;28;20541;-69
2022/07/11 09:38:13;;;;;;;0.28;0.25;;;22.80;98.40;;;;;;4984028;28;20033;-69
2022/07/11 09:40:44;;;;;;;0.20;0.20;;;22.60;98.70;;;;;;4995589;28;20397;-69
2022/07/11 09:43:10;;;;;;;0.00;0.00;;;22.60;99.00;;;;;;4995614;28;20060;-69
2022/07/11 09:45:36;;;;;;;0.13;0.13;;;22.50;98.60;;;;;;5013230;28;20030;-69
2022/07/11 09:48:13;;;;;;;0.00;0.00;;;22.60;98.50;;;;;;4995294;28;20075;-69
2022/07/11 09:50:40;;;;;;;0.00;0.00;;;22.50;98.50;;;;;;4995533;28;20386;-69
2022/07/11 09:53:09;;;;;;;0.20;0.20;;;22.50;98.60;;;;;;5012992;28;20061;-69
2022/07/11 09:55:44;;;;;;;0.00;0.00;;;22.60;98.40;;;;;;4995977;28;20070;-69
2022/07/11 09:58:16;;;;;;;0.00;0.00;;;22.60;98.40;;;;;;4996072;28;20038;-69
2022/07/11 10:00:44;;;;;;;0.00;0.00;;;22.60;98.40;;;;;;5012706;28;20041;-69
2022/07/11 10:03:12;;;;;;;0.00;0.00;;;22.60;98.50;;;;;;5012303;28;20041;-69
2022/07/11 10:05:38;;;;;;;0.13;0.10;;;22.70;98.60;;;;;;4995546;28;20026;-69
2022/07/11 10:08:05;;;;;;;0.90;0.60;;;22.90;98.50;;;;;;4995013;28;20025;-69
2022/07/11 10:10:33;;;;;;;0.00;0.00;;;23.00;97.80;;;;;;4995353;28;20030;-70
2022/07/11 10:12:59;;;;;;;0.08;0.08;;;23.10;97.70;;;;;;4995262;28;20030;-68
2022/07/11 10:15:34;;;;;;;0.00;0.00;;;23.20;97.60;;;;;;4995621;28;20394;-69
2022/07/11 10:18:06;;;;;;;0.00;0.00;;;23.20;97.50;;;;;;5001049;28;20038;-69
2022/07/11 10:21:04;;;;;;;0.00;0.00;;;23.20;97.60;;;;;;5000837;28;20091;-70
2022/07/11 10:23:50;;;;;;;0.17;0.10;;;23.30;97.80;;;;;;5003683;28;20100;-69
2022/07/11 10:27:15;;;;;;;0.28;0.15;;;23.50;97.60;;;;;;4995854;28;20022;-69
2022/07/11 10:29:50;;;;;;;0.30;0.30;;;23.70;97.40;;;;;;5012144;28;20030;-69
2022/07/11 10:32:16;;;;;;;0.00;0.00;;;24.00;96.50;;;;;;4995007;28;20026;-69
2022/07/11 10:34:43;;;;;;;0.10;0.10;;;23.70;96.30;;;;;;5012429;28;20037;-69
2022/07/11 10:37:09;;;;;;;1.10;0.55;;;24.20;96.40;;;;;;5012228;28;20540;-69
2022/07/11 10:39:46;;;;;;;0.00;0.00;;;24.70;95.60;;;;;;4994551;28;20477;-69
2022/07/11 10:42:20;;;;;;;0.00;0.00;;;24.90;94.70;;;;;;4995060;28;20030;-68
2022/07/11 10:44:49;;;;;;;0.00;0.00;;;25.00;93.50;;;;;;5012240;28;20018;-69
2022/07/11 10:47:42;;;;;;;0.10;0.05;;;25.20;94.00;;;;;;5012248;28;20060;-68
2022/07/11 10:50:29;;;;;;;0.15;0.15;;;25.40;93.50;;;;;;4995048;28;20030;-68
2022/07/11 10:52:57;;;;;;;1.40;1.08;;;25.40;93.80;;;;;;4995295;28;20030;-69
2022/07/11 10:55:45;;;;;;;0.17;0.17;;;25.50;93.60;;;;;;4994714;28;20030;-69
2022/07/11 10:58:28;;;;;;;0.65;0.55;;;25.60;93.50;;;;;;4995699;28;20033;-69
2022/07/11 11:01:15;;;;;;;0.90;0.85;;;25.70;93.60;;;;;;4996299;28;20034;-70
2022/07/11 11:03:43;;;;;;;1.08;0.85;;;25.70;94.30;;;;;;4994189;28;20121;-70
2022/07/11 11:06:10;;;;;;;0.08;0.08;;;25.80;93.50;;;;;;5011959;28;20061;-69
2022/07/11 11:08:42;;;;;;;0.38;0.38;;;25.80;93.30;;;;;;4993599;28;20544;-70
2022/07/11 11:11:23;;;;;;;0.05;0.05;;;25.80;93.20;;;;;;5011555;28;20022;-68
2022/07/11 11:14:18;;;;;;;0.00;0.00;;;25.80;93.20;;;;;;5011369;28;20033;-70
2022/07/11 11:16:48;;;;;;;0.30;0.13;;;25.90;93.20;;;;;;4993423;28;20494;-69
2022/07/11 11:19:48;;;;;;;0.25;0.25;;;25.80;93.20;;;;;;4989281;28;20022;-69
2022/07/11 11:22:16;;;;;;;0.10;0.10;;;25.90;93.50;;;;;;4991919;28;20038;-69
2022/07/11 11:24:48;;;;;;;1.17;0.80;;;26.10;93.10;;;;;;4974342;28;20277;-68
2022/07/11 11:27:22;;;;;;;0.38;0.20;;;26.40;92.50;;;;;;4991780;28;20026;-69
2022/07/11 11:29:54;;;;;;;0.63;0.63;;;26.30;92.50;;;;;;4991401;28;20041;-70
2022/07/11 11:32:28;;;;;;;0.10;0.10;;;26.30;92.20;;;;;;4974663;28;20445;-67
2022/07/11 11:34:54;;;;;;;0.22;0.22;;;26.30;92.40;;;;;;4975352;28;20506;-68
2022/07/11 11:37:21;;;;;;;0.55;0.43;;;26.10;92.40;;;;;;4991774;28;20090;-68
2022/07/11 11:39:47;;;;;;;0.30;0.30;;;26.00;92.60;;;;;;4991607;28;20041;-68
2022/07/11 11:42:16;;;;;;;1.27;0.70;;;25.80;92.80;;;;;;4973573;28;20030;-69
2022/07/11 11:44:52;;;;;;;0.65;0.55;;;25.70;92.60;;;;;;4973937;28;20065;-68
2022/07/11 11:47:18;;;;;;;0.00;0.00;;;25.80;92.70;;;;;;4996282;28;20041;-68
2022/07/11 11:49:47;;;;;;;0.25;0.25;;;25.80;92.40;;;;;;4993413;28;20064;-68
2022/07/11 11:52:13;;;;;;;0.10;0.10;;;25.70;92.80;;;;;;4993572;28;20030;-68
2022/07/11 11:54:40;;;;;;;0.38;0.38;;;25.90;92.70;;;;;;4993213;28;20478;-68
2022/07/11 11:57:11;;;;;;;0.25;0.25;;;25.90;92.40;;;;;;4993532;28;20037;-68
2022/07/11 11:59:38;;;;;;;0.20;0.20;;;25.60;92.70;;;;;;4994209;28;20025;-69
2022/07/11 12:02:04;;;;;;;0.00;0.00;;;26.10;92.90;;;;;;5010823;28;20040;-68
2022/07/11 12:04:32;;;;;;;3.95;0.30;;;26.20;91.70;;;;;;5010986;28;20028;-68
2022/07/11 12:07:00;;;;;;;0.20;0.20;;;26.70;91.60;;;;;;4993456;28;20670;-68
2022/07/11 12:14:55;;;;;;;0.20;0.17;;;26.80;90.20;;;;;;4996194;28;20478;-68
2022/07/11 12:17:26;;;;;;;0.32;0.32;;;26.30;91.00;;;;;;5005425;28;20038;-68
2022/07/11 12:19:53;;;;;;;0.00;0.00;;;26.40;90.80;;;;;;4990360;28;20031;-68
2022/07/11 12:22:19;;;;;;;1.08;0.43;;;26.00;91.20;;;;;;4989734;28;20391;-68
2022/07/11 12:24:52;;;;;;;0.00;0.00;;;26.10;91.20;;;;;;4992329;28;20109;-68
2022/07/11 12:27:24;;;;;;;0.00;0.00;;;26.20;91.40;;;;;;4994228;28;20084;-68
2022/07/11 12:29:51;;;;;;;0.15;0.15;;;26.50;91.30;;;;;;4977626;28;20041;-68
2022/07/11 12:32:24;;;;;;;0.38;0.20;;;26.70;90.80;;;;;;4993557;28;20030;-68
2022/07/11 12:34:50;;;;;;;0.13;0.13;;;26.90;90.30;;;;;;4993772;28;20516;-69
2022/07/11 12:37:19;;;;;;;0.10;0.10;;;27.10;90.40;;;;;;4993606;28;20026;-68
2022/07/11 12:39:56;;;;;;;0.38;0.30;;;27.00;90.00;;;;;;4995017;28;20080;-68
2022/07/11 12:42:32;;;;;;;23.23;1.25;;;27.80;88.70;;;;;;4993477;28;20033;-68
2022/07/11 12:45:10;;;;;;;0.00;0.00;;;27.80;88.90;;;;;;4993320;28;20030;-68
2022/07/11 12:47:39;;;;;;;0.45;0.45;;;27.60;87.30;;;;;;4994772;28;20038;-69
2022/07/11 12:50:20;;;;;;;0.30;0.30;;;27.40;88.70;;;;;;4994602;28;20045;-68
2022/07/11 12:52:55;;;;;;;0.15;0.15;;;27.90;88.10;;;;;;4977308;28;20035;-68
2022/07/11 12:55:28;;;;;;;0.17;0.17;;;27.80;87.80;;;;;;4994723;28;20038;-69
2022/07/11 12:58:13;;;;;;;0.73;0.25;;;27.70;88.50;;;;;;4994819;28;20038;-68
2022/07/11 13:00:59;;;;;;;0.50;0.22;;;27.00;88.70;;;;;;4993118;28;20038;-68
2022/07/11 13:03:34;;;;;;;0.25;0.25;;;27.10;89.00;;;;;;4994358;28;20041;-68
2022/07/11 13:06:05;;;;;;;0.98;0.38;;;27.30;88.20;;;;;;4993421;28;20100;-68